sensor_id;sensor_type;location;lat;lon;timestamp;pressure;altitude;pressure_sealevel;temperature;humidity
12178;BME280;6152;48.728;9.256;2023-05-10T00:01:28;96439.59;;;12.63;100.00
12178;BME280;6152;48.728;9.256;2023-05-10T00:03:54;96436.31;;;12.61;100.00
12178;BME280;6152;48.728;9.256;2023-05-10T00:06:20;96446.59;;;12.62;100.00
12178;BME280;6152;48.728;9.256;2023-05-10T00:08:46;96441.38;;;12.62;100.00
12178;BME280;6152;48.728;9.256;2023-05-10T00:11:12;96447.56;;;12.61;100.00
12178;BME280;6152;48.728;9.256;2023-05-10T00:13:38;96434.53;;;12.61;100.00
12178;BME280;6152;48.728;9.256;2023-05-10T00:16:05;96440.19;;;12.66;100.00
12178;BME280;6152;48.728;9.256;2023-05-10T00:18:31;96442.09;;;12.64;100.00
12178;BME280;6152;48.728;9.256;2023-05-10T00:20:57;96443.53;;;12.69;100.00
12178;BME280;6152;48.728;9.256;2023-05-10T00:23:23;96450.03;;;12.63;100.00
12178;BME280;6152;48.728;9.256;2023-05-10T00:25:49;96450.28;;;12.60;100.00
12178;BME280;6152;48.728;9.256;2023-05-10T00:28:15;96449.59;;;12.58;100.00
12178;BME280;6152;48.728;9.256;2023-05-10T00:30:41;96444.25;;;12.59;100.00
12178;BME280;6152;48.728;9.256;2023-05-10T00:33:07;96448.28;;;12.52;100.00
12178;BME280;6152;48.728;9.256;2023-05-10T00:35:34;96450.19;;;12.50;100.00
12178;BME280;6152;48.728;9.256;2023-05-10T00:38:00;96442.97;;;12.54;100.00
12178;BME280;6152;48.728;9.256;2023-05-10T00:40:26;96453.75;;;12.49;100.00
12178;BME280;6152;48.728;9.256;2023-05-10T00:42:52;96448.19;;;12.43;100.00
12178;BME280;6152;48.728;9.256;2023-05-10T00:45:18;96458.72;;;12.41;100.00
12178;BME280;6152;48.728;9.256;2023-05-10T00:47:45;96454.47;;;12.29;100.00
12178;BME280;6152;48.728;9.256;2023-05-10T00:50:11;96448.78;;;12.24;100.00
12178;BME280;6152;48.728;9.256;2023-05-10T00:52:37;96453.78;;;12.16;100.00
12178;BME280;6152;48.728;9.256;2023-05-10T00:55:04;96461.00;;;12.12;100.00
12178;BME280;6152;48.728;9.256;2023-05-10T00:57:30;96456.38;;;12.16;100.00
12178;BME280;6152;48.728;9.256;2023-05-10T00:59:57;96462.88;;;12.10;100.00
12178;BME280;6152;48.728;9.256;2023-05-10T01:02:23;96475.00;;;12.11;100.00
12178;BME280;6152;48.728;9.256;2023-05-10T01:04:50;96474.53;;;12.06;100.00
12178;BME280;6152;48.728;9.256;2023-05-10T01:07:17;96471.31;;;12.03;100.00
12178;BME280;6152;48.728;9.256;2023-05-10T01:09:44;96479.25;;;12.01;100.00
12178;BME280;6152;48.728;9.256;2023-05-10T01:12:10;96471.78;;;11.97;100.00
12178;BME280;6152;48.728;9.256;2023-05-10T01:14:36;96468.47;;;11.95;100.00
12178;BME280;6152;48.728;9.256;2023-05-10T01:17:04;96472.84;;;11.94;100.00
12178;BME280;6152;48.728;9.256;2023-05-10T01:19:31;96479.13;;;11.92;100.00
12178;BME280;6152;48.728;9.256;2023-05-10T01:22:21;96478.41;;;11.90;100.00
12178;BME280;6152;48.728;9.256;2023-05-10T01:33:19;96489.44;;;11.82;100.00
12178;BME280;6152;48.728;9.256;2023-05-10T01:38:52;96494.97;;;11.78;100.00
12178;BME280;6152;48.728;9.256;2023-05-10T01:41:51;96506.34;;;11.77;100.00
12178;BME280;6152;48.728;9.256;2023-05-10T01:46:51;96510.84;;;11.75;100.00
12178;BME280;6152;48.728;9.256;2023-05-10T01:49:29;96501.25;;;11.75;100.00
12178;BME280;6152;48.728;9.256;2023-05-10T01:52:00;96517.00;;;11.74;100.00
12178;BME280;6152;48.728;9.256;2023-05-10T01:54:30;96508.25;;;11.75;100.00
12178;BME280;6152;48.728;9.256;2023-05-10T01:57:06;96524.59;;;11.77;100.00
12178;BME280;6152;48.728;9.256;2023-05-10T01:59:35;96515.00;;;11.77;100.00
12178;BME280;6152;48.728;9.256;2023-05-10T02:02:07;96520.31;;;11.76;100.00
12178;BME280;6152;48.728;9.256;2023-05-10T02:04:38;96531.72;;;11.75;100.00
12178;BME280;6152;48.728;9.256;2023-05-10T02:07:06;96530.03;;;11.74;100.00
12178;BME280;6152;48.728;9.256;2023-05-10T02:09:34;96535.97;;;11.76;100.00
12178;BME280;6152;48.728;9.256;2023-05-10T02:12:02;96535.38;;;11.72;100.00
12178;BME280;6152;48.728;9.256;2023-05-10T02:14:34;96533.78;;;11.70;100.00
12178;BME280;6152;48.728;9.256;2023-05-10T02:17:02;96533.31;;;11.64;100.00
12178;BME280;6152;48.728;9.256;2023-05-10T02:19:29;96527.25;;;11.64;100.00
12178;BME280;6152;48.728;9.256;2023-05-10T02:21:56;96529.25;;;11.60;100.00
12178;BME280;6152;48.728;9.256;2023-05-10T02:24:24;96526.88;;;11.57;100.00
12178;BME280;6152;48.728;9.256;2023-05-10T02:26:52;96534.81;;;11.56;100.00
12178;BME280;6152;48.728;9.256;2023-05-10T02:29:20;96535.16;;;11.51;100.00
12178;BME280;6152;48.728;9.256;2023-05-10T02:31:53;96544.84;;;11.49;100.00
12178;BME280;6152;48.728;9.256;2023-05-10T02:34:23;96540.69;;;11.47;100.00
12178;BME280;6152;48.728;9.256;2023-05-10T02:36:52;96546.84;;;11.46;100.00
12178;BME280;6152;48.728;9.256;2023-05-10T02:39:20;96545.41;;;11.42;100.00
12178;BME280;6152;48.728;9.256;2023-05-10T02:41:50;96547.16;;;11.41;100.00
12178;BME280;6152;48.728;9.256;2023-05-10T02:44:19;96554.06;;;11.42;100.00
12178;BME280;6152;48.728;9.256;2023-05-10T02:46:46;96547.06;;;11.43;100.00
12178;BME280;6152;48.728;9.256;2023-05-10T02:49:13;96548.84;;;11.42;100.00
12178;BME280;6152;48.728;9.256;2023-05-10T02:51:44;96546.84;;;11.46;100.00
12178;BME280;6152;48.728;9.256;2023-05-10T02:54:18;96545.06;;;11.46;100.00
12178;BME280;6152;48.728;9.256;2023-05-10T02:56:54;96545.06;;;11.46;100.00
12178;BME280;6152;48.728;9.256;2023-05-10T02:59:22;96555.16;;;11.51;100.00
12178;BME280;6152;48.728;9.256;2023-05-10T03:01:48;96550.66;;;11.53;100.00
12178;BME280;6152;48.728;9.256;2023-05-10T03:04:14;96554.94;;;11.54;100.00
12178;BME280;6152;48.728;9.256;2023-05-10T03:06:41;96546.28;;;11.53;100.00
12178;BME280;6152;48.728;9.256;2023-05-10T03:09:07;96550.56;;;11.54;100.00
12178;BME280;6152;48.728;9.256;2023-05-10T03:17:11;96551.97;;;11.58;100.00
12178;BME280;6152;48.728;9.256;2023-05-10T03:19:58;96559.59;;;11.61;100.00
12178;BME280;6152;48.728;9.256;2023-05-10T03:22:32;96563.13;;;11.60;100.00
12178;BME280;6152;48.728;9.256;2023-05-10T03:25:01;96560.63;;;11.59;100.00
12178;BME280;6152;48.728;9.256;2023-05-10T03:27:32;96565.84;;;11.59;100.00
12178;BME280;6152;48.728;9.256;2023-05-10T03:30:00;96560.63;;;11.59;100.00
12178;BME280;6152;48.728;9.256;2023-05-10T03:32:29;96561.47;;;11.59;100.00
12178;BME280;6152;48.728;9.256;2023-05-10T03:34:57;96561.25;;;11.62;100.00
12178;BME280;6152;48.728;9.256;2023-05-10T03:37:23;96562.31;;;11.60;100.00
12178;BME280;6152;48.728;9.256;2023-05-10T03:39:49;96559.09;;;11.56;100.00
12178;BME280;6152;48.728;9.256;2023-05-10T03:42:16;96570.69;;;11.52;100.00
12178;BME280;6152;48.728;9.256;2023-05-10T03:44:43;96567.13;;;11.53;100.00
12178;BME280;6152;48.728;9.256;2023-05-10T03:47:09;96561.09;;;11.53;100.00
12178;BME280;6152;48.728;9.256;2023-05-10T03:49:35;96571.66;;;11.51;100.00
12178;BME280;6152;48.728;9.256;2023-05-10T03:52:01;96576.13;;;11.49;100.00
12178;BME280;6152;48.728;9.256;2023-05-10T03:54:27;96576.13;;;11.49;100.00
12178;BME280;6152;48.728;9.256;2023-05-10T03:56:53;96574.34;;;11.50;100.00
12178;BME280;6152;48.728;9.256;2023-05-10T03:59:20;96577.78;;;11.50;100.00
12178;BME280;6152;48.728;9.256;2023-05-10T04:01:46;96582.78;;;11.53;100.00
12178;BME280;6152;48.728;9.256;2023-05-10T04:04:12;96586.22;;;11.54;100.00
12178;BME280;6152;48.728;9.256;2023-05-10T04:06:38;96585.84;;;11.58;100.00
12178;BME280;6152;48.728;9.256;2023-05-10T04:09:04;96588.47;;;11.58;100.00
12178;BME280;6152;48.728;9.256;2023-05-10T04:11:31;96579.00;;;11.57;100.00
12178;BME280;6152;48.728;9.256;2023-05-10T04:13:57;96574.81;;;11.55;100.00
12178;BME280;6152;48.728;9.256;2023-05-10T04:16:23;96578.63;;;11.51;100.00
12178;BME280;6152;48.728;9.256;2023-05-10T04:18:49;96570.81;;;11.51;100.00
12178;BME280;6152;48.728;9.256;2023-05-10T04:21:15;96567.38;;;11.50;100.00
12178;BME280;6152;48.728;9.256;2023-05-10T04:23:41;96577.19;;;11.47;100.00
12178;BME280;6152;48.728;9.256;2023-05-10T04:26:08;96581.31;;;11.49;100.00
12178;BME280;6152;48.728;9.256;2023-05-10T04:28:34;96580.63;;;11.47;100.00
12178;BME280;6152;48.728;9.256;2023-05-10T04:31:04;96587.59;;;11.47;100.00
12178;BME280;6152;48.728;9.256;2023-05-10T04:33:31;96585.00;;;11.47;100.00
12178;BME280;6152;48.728;9.256;2023-05-10T04:35:57;96591.03;;;11.47;100.00
12178;BME280;6152;48.728;9.256;2023-05-10T04:38:23;96588.44;;;11.47;100.00
12178;BME280;6152;48.728;9.256;2023-05-10T04:40:50;96584.88;;;11.48;100.00
12178;BME280;6152;48.728;9.256;2023-05-10T04:43:16;96589.88;;;11.51;100.00
12178;BME280;6152;48.728;9.256;2023-05-10T04:45:42;96589.03;;;11.51;100.00
12178;BME280;6152;48.728;9.256;2023-05-10T04:48:08;96587.97;;;11.53;100.00
12178;BME280;6152;48.728;9.256;2023-05-10T04:50:35;96589.44;;;11.57;100.00
12178;BME280;6152;48.728;9.256;2023-05-10T04:53:01;96593.56;;;11.60;100.00
12178;BME280;6152;48.728;9.256;2023-05-10T04:55:27;96591.81;;;11.60;100.00
12178;BME280;6152;48.728;9.256;2023-05-10T04:57:53;96602.94;;;11.62;100.00
12178;BME280;6152;48.728;9.256;2023-05-10T05:00:22;96602.00;;;11.63;100.00
12178;BME280;6152;48.728;9.256;2023-05-10T05:02:49;96609.81;;;11.63;100.00
12178;BME280;6152;48.728;9.256;2023-05-10T05:05:15;96602.72;;;11.65;100.00
12178;BME280;6152;48.728;9.256;2023-05-10T05:07:41;96610.22;;;11.70;100.00
12178;BME280;6152;48.728;9.256;2023-05-10T05:10:08;96608.94;;;11.76;100.00
12178;BME280;6152;48.728;9.256;2023-05-10T05:12:34;96605.19;;;11.80;100.00
12178;BME280;6152;48.728;9.256;2023-05-10T05:15:01;96607.13;;;11.89;100.00
12178;BME280;6152;48.728;9.256;2023-05-10T05:17:27;96613.88;;;11.91;100.00
12178;BME280;6152;48.728;9.256;2023-05-10T05:19:55;96608.81;;;12.01;100.00
12178;BME280;6152;48.728;9.256;2023-05-10T05:22:21;96613.56;;;12.07;100.00
12178;BME280;6152;48.728;9.256;2023-05-10T05:24:57;96617.97;;;12.18;100.00
12178;BME280;6152;48.728;9.256;2023-05-10T05:27:28;96624.78;;;12.20;100.00
12178;BME280;6152;48.728;9.256;2023-05-10T05:29:55;96625.13;;;12.27;100.00
12178;BME280;6152;48.728;9.256;2023-05-10T05:32:21;96624.53;;;12.34;100.00
12178;BME280;6152;48.728;9.256;2023-05-10T05:34:48;96624.81;;;12.42;100.00
12178;BME280;6152;48.728;9.256;2023-05-10T05:37:19;96625.75;;;12.52;100.00
12178;BME280;6152;48.728;9.256;2023-05-10T05:39:45;96636.19;;;12.52;100.00
12178;BME280;6152;48.728;9.256;2023-05-10T05:42:12;96629.34;;;12.51;100.00
12178;BME280;6152;48.728;9.256;2023-05-10T05:44:39;96627.44;;;12.53;100.00
12178;BME280;6152;48.728;9.256;2023-05-10T05:47:05;96634.09;;;12.57;100.00
12178;BME280;6152;48.728;9.256;2023-05-10T05:49:32;96636.69;;;12.57;100.00
12178;BME280;6152;48.728;9.256;2023-05-10T05:52:02;96648.06;;;12.56;100.00
12178;BME280;6152;48.728;9.256;2023-05-10T05:54:29;96651.38;;;12.58;100.00
12178;BME280;6152;48.728;9.256;2023-05-10T05:56:56;96645.38;;;12.58;100.00
12178;BME280;6152;48.728;9.256;2023-05-10T05:59:23;96643.69;;;12.57;100.00
12178;BME280;6152;48.728;9.256;2023-05-10T06:01:49;96646.66;;;12.63;100.00
12178;BME280;6152;48.728;9.256;2023-05-10T06:04:16;96649.78;;;12.69;100.00
12178;BME280;6152;48.728;9.256;2023-05-10T06:06:42;96645.34;;;12.69;100.00
12178;BME280;6152;48.728;9.256;2023-05-10T06:09:09;96650.00;;;12.77;100.00
12178;BME280;6152;48.728;9.256;2023-05-10T06:11:35;96645.38;;;12.80;100.00
12178;BME280;6152;48.728;9.256;2023-05-10T06:14:02;96654.53;;;12.86;100.00
12178;BME280;6152;48.728;9.256;2023-05-10T06:16:30;96656.28;;;12.96;100.00
12178;BME280;6152;48.728;9.256;2023-05-10T06:18:56;96654.75;;;13.05;100.00
12178;BME280;6152;48.728;9.256;2023-05-10T06:21:22;96663.47;;;13.17;100.00
12178;BME280;6152;48.728;9.256;2023-05-10T06:23:48;96657.03;;;13.32;100.00
12178;BME280;6152;48.728;9.256;2023-05-10T06:26:15;96662.13;;;13.44;100.00
12178;BME280;6152;48.728;9.256;2023-05-10T06:28:41;96667.56;;;13.41;100.00
12178;BME280;6152;48.728;9.256;2023-05-10T06:31:07;96671.16;;;13.40;100.00
12178;BME280;6152;48.728;9.256;2023-05-10T06:33:34;96670.66;;;13.46;100.00
12178;BME280;6152;48.728;9.256;2023-05-10T06:36:00;96673.03;;;13.49;100.00
12178;BME280;6152;48.728;9.256;2023-05-10T06:38:26;96672.78;;;13.52;100.00
12178;BME280;6152;48.728;9.256;2023-05-10T06:40:52;96676.81;;;13.56;100.00
12178;BME280;6152;48.728;9.256;2023-05-10T06:43:18;96673.28;;;13.46;100.00
12178;BME280;6152;48.728;9.256;2023-05-10T06:45:44;96674.22;;;13.45;100.00
12178;BME280;6152;48.728;9.256;2023-05-10T06:48:11;96679.22;;;13.48;100.00
12178;BME280;6152;48.728;9.256;2023-05-10T06:50:37;96679.00;;;13.51;100.00
12178;BME280;6152;48.728;9.256;2023-05-10T06:53:03;96679.22;;;13.48;100.00
12178;BME280;6152;48.728;9.256;2023-05-10T06:55:29;96699.78;;;13.42;100.00
12178;BME280;6152;48.728;9.256;2023-05-10T06:57:55;96694.78;;;13.39;100.00
12178;BME280;6152;48.728;9.256;2023-05-10T07:00:21;96681.88;;;13.37;100.00
12178;BME280;6152;48.728;9.256;2023-05-10T07:02:48;96684.94;;;13.42;100.00
12178;BME280;6152;48.728;9.256;2023-05-10T07:05:14;96689.81;;;13.36;100.00
12178;BME280;6152;48.728;9.256;2023-05-10T07:07:41;96679.13;;;13.28;100.00
12178;BME280;6152;48.728;9.256;2023-05-10T07:10:07;96682.06;;;13.34;100.00
12178;BME280;6152;48.728;9.256;2023-05-10T07:12:34;96687.19;;;13.25;100.00
12178;BME280;6152;48.728;9.256;2023-05-10T07:15:00;96693.84;;;13.29;100.00
12178;BME280;6152;48.728;9.256;2023-05-10T07:17:26;96692.19;;;13.28;100.00
12178;BME280;6152;48.728;9.256;2023-05-10T07:19:52;96690.88;;;13.33;100.00
12178;BME280;6152;48.728;9.256;2023-05-10T07:22:18;96682.81;;;13.47;100.00
12178;BME280;6152;48.728;9.256;2023-05-10T07:24:44;96682.03;;;13.68;100.00
12178;BME280;6152;48.728;9.256;2023-05-10T07:27:11;96685.41;;;13.90;100.00
12178;BME280;6152;48.728;9.256;2023-05-10T07:29:37;96692.41;;;14.01;100.00
12178;BME280;6152;48.728;9.256;2023-05-10T07:32:03;96692.72;;;14.07;100.00
12178;BME280;6152;48.728;9.256;2023-05-10T07:34:29;96693.47;;;14.09;100.00
12178;BME280;6152;48.728;9.256;2023-05-10T07:37:00;96697.47;;;14.13;100.00
12178;BME280;6152;48.728;9.256;2023-05-10T07:39:27;96698.72;;;14.30;100.00
12178;BME280;6152;48.728;9.256;2023-05-10T07:41:56;96696.09;;;14.30;100.00
12178;BME280;6152;48.728;9.256;2023-05-10T07:44:23;96702.56;;;14.58;100.00
12178;BME280;6152;48.728;9.256;2023-05-10T07:46:49;96695.50;;;14.79;100.00
12178;BME280;6152;48.728;9.256;2023-05-10T07:49:16;96699.19;;;14.97;100.00
12178;BME280;6152;48.728;9.256;2023-05-10T07:51:42;96697.03;;;14.82;100.00
12178;BME280;6152;48.728;9.256;2023-05-10T07:54:08;96703.22;;;14.81;100.00
12178;BME280;6152;48.728;9.256;2023-05-10T07:56:34;96706.31;;;14.86;100.00
12178;BME280;6152;48.728;9.256;2023-05-10T07:59:01;96706.63;;;14.72;100.00
12178;BME280;6152;48.728;9.256;2023-05-10T08:01:31;96706.13;;;14.78;100.00
12178;BME280;6152;48.728;9.256;2023-05-10T08:04:00;96715.66;;;14.79;100.00
12178;BME280;6152;48.728;9.256;2023-05-10T08:06:26;96710.91;;;14.73;100.00
12178;BME280;6152;48.728;9.256;2023-05-10T08:08:54;96704.84;;;14.51;100.00
12178;BME280;6152;48.728;9.256;2023-05-10T08:11:21;96714.19;;;14.65;100.00
12178;BME280;6152;48.728;9.256;2023-05-10T08:13:49;96703.69;;;14.65;100.00
12178;BME280;6152;48.728;9.256;2023-05-10T08:16:16;96712.13;;;14.69;100.00
12178;BME280;6152;48.728;9.256;2023-05-10T08:18:43;96706.44;;;14.84;100.00
12178;BME280;6152;48.728;9.256;2023-05-10T08:21:09;96709.81;;;14.96;100.00
12178;BME280;6152;48.728;9.256;2023-05-10T08:23:37;96718.94;;;15.01;100.00
12178;BME280;6152;48.728;9.256;2023-05-10T08:26:03;96711.19;;;15.00;100.00
12178;BME280;6152;48.728;9.256;2023-05-10T08:28:29;96719.50;;;15.05;100.00
12178;BME280;6152;48.728;9.256;2023-05-10T08:30:56;96714.16;;;15.06;100.00
12178;BME280;6152;48.728;9.256;2023-05-10T08:33:22;96712.25;;;15.18;100.00
12178;BME280;6152;48.728;9.256;2023-05-10T08:35:48;96720.66;;;15.42;100.00
12178;BME280;6152;48.728;9.256;2023-05-10T08:38:15;96711.91;;;15.62;100.00
12178;BME280;6152;48.728;9.256;2023-05-10T08:40:44;96717.75;;;15.76;100.00
12178;BME280;6152;48.728;9.256;2023-05-10T08:43:13;96719.41;;;15.77;100.00
12178;BME280;6152;48.728;9.256;2023-05-10T08:45:43;96717.53;;;15.98;100.00
12178;BME280;6152;48.728;9.256;2023-05-10T08:48:10;96724.44;;;16.08;100.00
12178;BME280;6152;48.728;9.256;2023-05-10T08:50:38;96731.94;;;15.63;100.00
12178;BME280;6152;48.728;9.256;2023-05-10T08:53:06;96717.59;;;15.68;100.00
12178;BME280;6152;48.728;9.256;2023-05-10T08:55:35;96725.16;;;15.51;100.00
12178;BME280;6152;48.728;9.256;2023-05-10T08:58:04;96730.28;;;15.62;100.00
12178;BME280;6152;48.728;9.256;2023-05-10T09:00:31;96727.94;;;15.69;100.00
12178;BME280;6152;48.728;9.256;2023-05-10T09:03:03;96725.50;;;15.77;100.00
12178;BME280;6152;48.728;9.256;2023-05-10T09:05:29;96729.91;;;15.77;100.00
12178;BME280;6152;48.728;9.256;2023-05-10T09:07:56;96729.22;;;15.75;100.00
12178;BME280;6152;48.728;9.256;2023-05-10T09:10:23;96727.13;;;15.69;100.00
12178;BME280;6152;48.728;9.256;2023-05-10T09:12:52;96737.31;;;15.62;100.00
12178;BME280;6152;48.728;9.256;2023-05-10T09:15:19;96736.31;;;15.53;100.00
12178;BME280;6152;48.728;9.256;2023-05-10T09:17:46;96740.91;;;15.61;100.00
12178;BME280;6152;48.728;9.256;2023-05-10T09:20:13;96737.09;;;15.75;100.00
12178;BME280;6152;48.728;9.256;2023-05-10T09:22:39;96731.00;;;15.74;100.00
12178;BME280;6152;48.728;9.256;2023-05-10T09:25:11;96746.03;;;15.72;100.00
12178;BME280;6152;48.728;9.256;2023-05-10T09:27:39;96738.13;;;15.53;100.00
12178;BME280;6152;48.728;9.256;2023-05-10T09:30:06;96738.31;;;15.40;100.00
12178;BME280;6152;48.728;9.256;2023-05-10T09:32:40;96743.66;;;15.59;100.00
12178;BME280;6152;48.728;9.256;2023-05-10T09:35:17;96744.09;;;15.64;100.00
12178;BME280;6152;48.728;9.256;2023-05-10T09:37:46;96748.94;;;15.69;100.00
12178;BME280;6152;48.728;9.256;2023-05-10T09:40:32;96758.09;;;15.84;100.00
12178;BME280;6152;48.728;9.256;2023-05-10T09:43:08;96760.19;;;15.50;100.00
12178;BME280;6152;48.728;9.256;2023-05-10T09:45:36;96758.41;;;15.30;100.00
12178;BME280;6152;48.728;9.256;2023-05-10T09:48:03;96766.16;;;15.11;100.00
12178;BME280;6152;48.728;9.256;2023-05-10T09:50:30;96757.41;;;15.01;100.00
12178;BME280;6152;48.728;9.256;2023-05-10T09:53:01;96761.81;;;15.00;100.00
12178;BME280;6152;48.728;9.256;2023-05-10T09:55:43;96762.13;;;15.07;100.00
12178;BME280;6152;48.728;9.256;2023-05-10T09:58:13;96760.53;;;15.15;100.00
12178;BME280;6152;48.728;9.256;2023-05-10T10:00:44;96754.13;;;15.29;100.00
12178;BME280;6152;48.728;9.256;2023-05-10T10:03:15;96750.41;;;15.32;100.00
12178;BME280;6152;48.728;9.256;2023-05-10T10:05:43;96746.19;;;15.40;100.00
12178;BME280;6152;48.728;9.256;2023-05-10T10:08:10;96751.16;;;15.74;100.00
12178;BME280;6152;48.728;9.256;2023-05-10T10:10:37;96746.41;;;15.98;100.00
12178;BME280;6152;48.728;9.256;2023-05-10T10:13:04;96757.69;;;16.57;100.00
12178;BME280;6152;48.728;9.256;2023-05-10T10:15:31;96751.56;;;17.05;100.00
12178;BME280;6152;48.728;9.256;2023-05-10T10:17:58;96752.03;;;17.37;100.00
12178;BME280;6152;48.728;9.256;2023-05-10T10:20:26;96746.28;;;17.88;100.00
12178;BME280;6152;48.728;9.256;2023-05-10T10:22:52;96742.38;;;18.37;100.00
12178;BME280;6152;48.728;9.256;2023-05-10T10:25:20;96745.53;;;18.76;100.00
12178;BME280;6152;48.728;9.256;2023-05-10T10:30:29;96737.47;;;19.21;100.00
12178;BME280;6152;48.728;9.256;2023-05-10T10:33:48;96729.59;;;19.47;100.00
12178;BME280;6152;48.728;9.256;2023-05-10T10:35:53;96733.84;;;19.74;100.00
12178;BME280;6152;48.728;9.256;2023-05-10T10:38:21;96741.63;;;19.49;94.10
12178;BME280;6152;48.728;9.256;2023-05-10T10:40:48;96739.84;;;19.32;96.37
12178;BME280;6152;48.728;9.256;2023-05-10T10:43:25;96738.34;;;18.60;97.93
12178;BME280;6152;48.728;9.256;2023-05-10T10:46:14;96740.47;;;18.12;100.00
12178;BME280;6152;48.728;9.256;2023-05-10T10:48:47;96737.03;;;17.84;100.00
12178;BME280;6152;48.728;9.256;2023-05-10T10:51:14;96742.88;;;17.78;100.00
12178;BME280;6152;48.728;9.256;2023-05-10T10:53:41;96738.91;;;17.55;100.00
12178;BME280;6152;48.728;9.256;2023-05-10T10:56:10;96744.47;;;17.52;100.00
12178;BME280;6152;48.728;9.256;2023-05-10T10:58:38;96735.72;;;17.34;100.00
12178;BME280;6152;48.728;9.256;2023-05-10T11:01:15;96744.47;;;17.15;100.00
12178;BME280;6152;48.728;9.256;2023-05-10T11:06:37;96738.00;;;16.90;100.00
12178;BME280;6152;48.728;9.256;2023-05-10T11:09:11;96744.13;;;16.72;100.00
12178;BME280;6152;48.728;9.256;2023-05-10T11:11:53;96749.22;;;16.54;100.00
12178;BME280;6152;48.728;9.256;2023-05-10T11:14:23;96749.06;;;16.27;100.00
12178;BME280;6152;48.728;9.256;2023-05-10T11:16:50;96752.09;;;16.03;100.00
12178;BME280;6152;48.728;9.256;2023-05-10T11:19:17;96755.66;;;16.02;100.00
12178;BME280;6152;48.728;9.256;2023-05-10T11:21:52;96757.78;;;16.46;100.00
12178;BME280;6152;48.728;9.256;2023-05-10T11:24:37;96766.66;;;17.03;100.00
12178;BME280;6152;48.728;9.256;2023-05-10T11:27:03;96761.66;;;17.00;100.00
12178;BME280;6152;48.728;9.256;2023-05-10T11:29:30;96764.75;;;16.86;100.00
12178;BME280;6152;48.728;9.256;2023-05-10T11:31:59;96754.94;;;16.69;100.00
12178;BME280;6152;48.728;9.256;2023-05-10T11:34:29;96759.88;;;16.43;100.00
12178;BME280;6152;48.728;9.256;2023-05-10T11:36:57;96763.16;;;16.35;100.00
12178;BME280;6152;48.728;9.256;2023-05-10T11:39:27;96767.19;;;16.20;94.61
12178;BME280;6152;48.728;9.256;2023-05-10T11:41:54;96760.53;;;16.06;93.38
12178;BME280;6152;48.728;9.256;2023-05-10T11:44:20;96762.97;;;15.89;97.95
12178;BME280;6152;48.728;9.256;2023-05-10T11:46:46;96770.91;;;15.68;98.01
12178;BME280;6152;48.728;9.256;2023-05-10T11:49:12;96771.56;;;15.60;100.00
12178;BME280;6152;48.728;9.256;2023-05-10T11:51:39;96778.88;;;15.36;100.00
12178;BME280;6152;48.728;9.256;2023-05-10T11:54:10;96785.72;;;15.07;100.00
12178;BME280;6152;48.728;9.256;2023-05-10T11:56:40;96777.94;;;14.75;100.00
12178;BME280;6152;48.728;9.256;2023-05-10T11:59:07;96790.56;;;14.70;100.00
12178;BME280;6152;48.728;9.256;2023-05-10T12:01:34;96789.84;;;14.47;100.00
12178;BME280;6152;48.728;9.256;2023-05-10T12:04:01;96799.97;;;14.41;100.00
12178;BME280;6152;48.728;9.256;2023-05-10T12:06:31;96796.28;;;14.32;100.00
12178;BME280;6152;48.728;9.256;2023-05-10T12:08:57;96787.97;;;14.27;100.00
12178;BME280;6152;48.728;9.256;2023-05-10T12:11:28;96804.84;;;14.34;100.00
12178;BME280;6152;48.728;9.256;2023-05-10T12:13:55;96809.88;;;14.37;100.00
12178;BME280;6152;48.728;9.256;2023-05-10T12:16:26;96809.38;;;14.43;100.00
12178;BME280;6152;48.728;9.256;2023-05-10T12:18:57;96809.63;;;14.40;100.00
12178;BME280;6152;48.728;9.256;2023-05-10T12:21:23;96806.75;;;14.43;100.00
12178;BME280;6152;48.728;9.256;2023-05-10T12:23:54;96812.63;;;14.68;100.00
12178;BME280;6152;48.728;9.256;2023-05-10T12:26:25;96805.75;;;15.08;100.00
12178;BME280;6152;48.728;9.256;2023-05-10T12:28:53;96807.44;;;15.39;100.00
12178;BME280;6152;48.728;9.256;2023-05-10T12:31:19;96803.94;;;15.80;100.00
12178;BME280;6152;48.728;9.256;2023-05-10T12:33:46;96804.81;;;16.00;100.00
12178;BME280;6152;48.728;9.256;2023-05-10T12:36:14;96811.41;;;16.34;100.00
12178;BME280;6152;48.728;9.256;2023-05-10T12:38:42;96803.28;;;16.37;100.00
12178;BME280;6152;48.728;9.256;2023-05-10T12:41:14;96807.69;;;16.46;100.00
12178;BME280;6152;48.728;9.256;2023-05-10T12:43:40;96814.06;;;16.44;100.00
12178;BME280;6152;48.728;9.256;2023-05-10T12:46:11;96809.50;;;16.46;100.00
12178;BME280;6152;48.728;9.256;2023-05-10T12:48:38;96805.63;;;16.40;100.00
12178;BME280;6152;48.728;9.256;2023-05-10T12:51:06;96804.78;;;16.30;100.00
12178;BME280;6152;48.728;9.256;2023-05-10T12:53:35;96806.84;;;16.36;100.00
12178;BME280;6152;48.728;9.256;2023-05-10T12:56:01;96810.72;;;16.23;100.00
12178;BME280;6152;48.728;9.256;2023-05-10T12:58:27;96812.56;;;16.01;100.00
12178;BME280;6152;48.728;9.256;2023-05-10T13:00:54;96814.94;;;15.64;100.00
12178;BME280;6152;48.728;9.256;2023-05-10T13:03:22;96816.34;;;15.48;100.00
12178;BME280;6152;48.728;9.256;2023-05-10T13:05:48;96820.28;;;15.42;100.00
12178;BME280;6152;48.728;9.256;2023-05-10T13:08:15;96815.56;;;15.36;100.00
12178;BME280;6152;48.728;9.256;2023-05-10T13:10:41;96809.75;;;15.33;100.00
12178;BME280;6152;48.728;9.256;2023-05-10T13:13:07;96816.16;;;15.40;100.00
12178;BME280;6152;48.728;9.256;2023-05-10T13:15:34;96808.72;;;15.45;100.00
12178;BME280;6152;48.728;9.256;2023-05-10T13:18:00;96809.31;;;15.48;100.00
12178;BME280;6152;48.728;9.256;2023-05-10T13:20:26;96813.00;;;15.66;100.00
12178;BME280;6152;48.728;9.256;2023-05-10T13:22:53;96809.47;;;15.87;100.00
12178;BME280;6152;48.728;9.256;2023-05-10T13:25:19;96803.47;;;16.05;100.00
12178;BME280;6152;48.728;9.256;2023-05-10T13:27:45;96806.59;;;16.39;100.00
12178;BME280;6152;48.728;9.256;2023-05-10T13:30:11;96804.97;;;16.57;100.00